sensor_id;sensor_type;location;lat;lon;timestamp;temperature;humidity
12370;DHT22;6249;52.128;9.986;2023-04-16T00:03:15;10.30;99.90
12370;DHT22;6249;52.128;9.986;2023-04-16T00:06:35;10.20;99.90
12370;DHT22;6249;52.128;9.986;2023-04-16T00:09:58;10.30;99.90
12370;DHT22;6249;52.128;9.986;2023-04-16T00:13:19;10.20;99.90
12370;DHT22;6249;52.128;9.986;2023-04-16T00:16:43;10.20;99.90
12370;DHT22;6249;52.128;9.986;2023-04-16T00:20:04;10.20;99.90
12370;DHT22;6249;52.128;9.986;2023-04-16T00:23:25;10.10;99.90
12370;DHT22;6249;52.128;9.986;2023-04-16T00:26:47;10.10;99.90
12370;DHT22;6249;52.128;9.986;2023-04-16T00:30:08;10.00;99.90
12370;DHT22;6249;52.128;9.986;2023-04-16T00:33:29;9.90;99.90
12370;DHT22;6249;52.128;9.986;2023-04-16T00:36:54;9.90;99.90
12370;DHT22;6249;52.128;9.986;2023-04-16T00:40:15;9.90;99.90
12370;DHT22;6249;52.128;9.986;2023-04-16T00:43:37;9.80;99.90
12370;DHT22;6249;52.128;9.986;2023-04-16T00:47:01;9.80;99.90
12370;DHT22;6249;52.128;9.986;2023-04-16T00:50:24;9.80;99.90
12370;DHT22;6249;52.128;9.986;2023-04-16T00:53:48;9.70;99.90
12370;DHT22;6249;52.128;9.986;2023-04-16T00:57:10;9.70;99.90
12370;DHT22;6249;52.128;9.986;2023-04-16T01:00:32;9.70;99.90
12370;DHT22;6249;52.128;9.986;2023-04-16T01:03:53;9.70;99.90
12370;DHT22;6249;52.128;9.986;2023-04-16T01:07:14;9.70;99.90
12370;DHT22;6249;52.128;9.986;2023-04-16T01:10:37;9.60;99.90
12370;DHT22;6249;52.128;9.986;2023-04-16T01:13:58;9.60;99.90
12370;DHT22;6249;52.128;9.986;2023-04-16T01:17:21;9.60;99.90
12370;DHT22;6249;52.128;9.986;2023-04-16T01:20:45;9.60;99.90
12370;DHT22;6249;52.128;9.986;2023-04-16T01:24:08;9.60;99.90
12370;DHT22;6249;52.128;9.986;2023-04-16T01:27:31;9.60;99.90
12370;DHT22;6249;52.128;9.986;2023-04-16T01:30:51;9.60;99.90
12370;DHT22;6249;52.128;9.986;2023-04-16T01:34:12;9.60;99.90
12370;DHT22;6249;52.128;9.986;2023-04-16T01:37:33;9.60;99.90
12370;DHT22;6249;52.128;9.986;2023-04-16T01:40:56;9.60;99.90
12370;DHT22;6249;52.128;9.986;2023-04-16T01:44:19;9.60;99.90
12370;DHT22;6249;52.128;9.986;2023-04-16T01:47:41;9.60;99.90
12370;DHT22;6249;52.128;9.986;2023-04-16T01:51:02;9.50;99.90
12370;DHT22;6249;52.128;9.986;2023-04-16T01:54:24;9.50;99.90
12370;DHT22;6249;52.128;9.986;2023-04-16T01:57:45;9.50;99.90
12370;DHT22;6249;52.128;9.986;2023-04-16T02:01:06;9.50;99.90
12370;DHT22;6249;52.128;9.986;2023-04-16T02:04:29;9.40;99.90
12370;DHT22;6249;52.128;9.986;2023-04-16T02:07:52;9.50;99.90
12370;DHT22;6249;52.128;9.986;2023-04-16T02:11:17;9.50;99.90
12370;DHT22;6249;52.128;9.986;2023-04-16T02:14:42;9.40;99.90
12370;DHT22;6249;52.128;9.986;2023-04-16T02:18:03;9.40;99.90
12370;DHT22;6249;52.128;9.986;2023-04-16T02:21:24;9.40;99.90
12370;DHT22;6249;52.128;9.986;2023-04-16T02:24:45;9.40;99.90
12370;DHT22;6249;52.128;9.986;2023-04-16T02:28:13;9.40;99.90
12370;DHT22;6249;52.128;9.986;2023-04-16T02:31:33;9.40;99.90
12370;DHT22;6249;52.128;9.986;2023-04-16T02:34:54;9.40;99.90
12370;DHT22;6249;52.128;9.986;2023-04-16T02:38:18;9.30;99.90
12370;DHT22;6249;52.128;9.986;2023-04-16T02:41:39;9.30;99.90
12370;DHT22;6249;52.128;9.986;2023-04-16T02:45:02;9.30;99.90
12370;DHT22;6249;52.128;9.986;2023-04-16T02:48:23;9.30;99.90
12370;DHT22;6249;52.128;9.986;2023-04-16T02:51:46;9.30;99.90
12370;DHT22;6249;52.128;9.986;2023-04-16T02:55:09;9.30;99.90
12370;DHT22;6249;52.128;9.986;2023-04-16T02:58:30;9.30;99.90
12370;DHT22;6249;52.128;9.986;2023-04-16T03:01:50;9.30;99.90
12370;DHT22;6249;52.128;9.986;2023-04-16T03:05:11;9.20;99.90
12370;DHT22;6249;52.128;9.986;2023-04-16T03:08:32;9.10;99.90
12370;DHT22;6249;52.128;9.986;2023-04-16T03:11:52;9.10;99.90
12370;DHT22;6249;52.128;9.986;2023-04-16T03:15:15;9.00;99.90
12370;DHT22;6249;52.128;9.986;2023-04-16T03:18:36;9.00;99.90
12370;DHT22;6249;52.128;9.986;2023-04-16T03:21:56;9.00;99.90
12370;DHT22;6249;52.128;9.986;2023-04-16T03:25:17;9.00;99.90
12370;DHT22;6249;52.128;9.986;2023-04-16T03:28:40;8.90;99.90
12370;DHT22;6249;52.128;9.986;2023-04-16T03:32:03;8.90;99.90
12370;DHT22;6249;52.128;9.986;2023-04-16T03:35:24;8.90;99.90
12370;DHT22;6249;52.128;9.986;2023-04-16T03:38:44;8.80;99.90
12370;DHT22;6249;52.128;9.986;2023-04-16T03:42:07;8.80;99.90
12370;DHT22;6249;52.128;9.986;2023-04-16T03:45:28;8.80;99.90
12370;DHT22;6249;52.128;9.986;2023-04-16T03:48:50;8.80;99.90
12370;DHT22;6249;52.128;9.986;2023-04-16T03:52:13;8.80;99.90
12370;DHT22;6249;52.128;9.986;2023-04-16T03:55:36;8.80;99.90
12370;DHT22;6249;52.128;9.986;2023-04-16T03:59:02;8.80;99.90
12370;DHT22;6249;52.128;9.986;2023-04-16T04:02:22;8.80;99.90
12370;DHT22;6249;52.128;9.986;2023-04-16T04:05:43;8.80;99.90
12370;DHT22;6249;52.128;9.986;2023-04-16T04:09:04;8.80;99.90
12370;DHT22;6249;52.128;9.986;2023-04-16T04:12:24;8.70;99.90
12370;DHT22;6249;52.128;9.986;2023-04-16T04:15:45;8.70;99.90
12370;DHT22;6249;52.128;9.986;2023-04-16T04:19:08;8.70;99.90
12370;DHT22;6249;52.128;9.986;2023-04-16T04:22:28;8.70;99.90
12370;DHT22;6249;52.128;9.986;2023-04-16T04:25:50;8.80;99.90
12370;DHT22;6249;52.128;9.986;2023-04-16T04:29:12;8.80;99.90
12370;DHT22;6249;52.128;9.986;2023-04-16T04:32:33;8.80;99.90
12370;DHT22;6249;52.128;9.986;2023-04-16T04:35:56;8.80;99.90
12370;DHT22;6249;52.128;9.986;2023-04-16T04:39:17;8.70;99.90
12370;DHT22;6249;52.128;9.986;2023-04-16T04:42:43;8.70;99.90
12370;DHT22;6249;52.128;9.986;2023-04-16T04:46:05;8.60;99.90
12370;DHT22;6249;52.128;9.986;2023-04-16T04:49:28;8.70;99.90
12370;DHT22;6249;52.128;9.986;2023-04-16T04:52:50;8.70;99.90
12370;DHT22;6249;52.128;9.986;2023-04-16T04:56:10;8.60;99.90
12370;DHT22;6249;52.128;9.986;2023-04-16T04:59:31;8.70;99.90
12370;DHT22;6249;52.128;9.986;2023-04-16T05:02:56;8.60;99.90
12370;DHT22;6249;52.128;9.986;2023-04-16T05:06:19;8.70;99.90
12370;DHT22;6249;52.128;9.986;2023-04-16T05:09:45;8.60;99.90
12370;DHT22;6249;52.128;9.986;2023-04-16T05:13:05;8.60;99.90
12370;DHT22;6249;52.128;9.986;2023-04-16T05:16:26;8.50;99.90
12370;DHT22;6249;52.128;9.986;2023-04-16T05:19:49;8.50;99.90
12370;DHT22;6249;52.128;9.986;2023-04-16T05:23:10;8.50;99.90
12370;DHT22;6249;52.128;9.986;2023-04-16T05:26:30;8.50;99.90
12370;DHT22;6249;52.128;9.986;2023-04-16T05:29:54;8.50;99.90
12370;DHT22;6249;52.128;9.986;2023-04-16T05:33:17;8.50;99.90
12370;DHT22;6249;52.128;9.986;2023-04-16T05:36:37;8.40;99.90
12370;DHT22;6249;52.128;9.986;2023-04-16T05:39:58;8.50;99.90
12370;DHT22;6249;52.128;9.986;2023-04-16T05:43:18;8.40;99.90
12370;DHT22;6249;52.128;9.986;2023-04-16T05:46:41;8.40;99.90
12370;DHT22;6249;52.128;9.986;2023-04-16T05:50:02;8.40;99.90
12370;DHT22;6249;52.128;9.986;2023-04-16T05:53:29;8.40;99.90
12370;DHT22;6249;52.128;9.986;2023-04-16T05:56:52;8.50;99.90
12370;DHT22;6249;52.128;9.986;2023-04-16T06:00:13;8.40;99.90
12370;DHT22;6249;52.128;9.986;2023-04-16T06:03:38;8.40;99.90
12370;DHT22;6249;52.128;9.986;2023-04-16T06:06:59;8.40;99.90
12370;DHT22;6249;52.128;9.986;2023-04-16T06:10:20;8.40;99.90
12370;DHT22;6249;52.128;9.986;2023-04-16T06:13:43;8.50;99.90
12370;DHT22;6249;52.128;9.986;2023-04-16T06:17:04;8.50;99.90
12370;DHT22;6249;52.128;9.986;2023-04-16T06:20:27;8.50;99.90
12370;DHT22;6249;52.128;9.986;2023-04-16T06:23:52;8.50;99.90
12370;DHT22;6249;52.128;9.986;2023-04-16T06:27:13;8.50;99.90
12370;DHT22;6249;52.128;9.986;2023-04-16T06:30:34;8.50;99.90
12370;DHT22;6249;52.128;9.986;2023-04-16T06:33:55;8.50;99.90
12370;DHT22;6249;52.128;9.986;2023-04-16T06:37:15;8.50;99.90
12370;DHT22;6249;52.128;9.986;2023-04-16T06:40:36;8.50;99.90
12370;DHT22;6249;52.128;9.986;2023-04-16T06:43:56;8.60;99.90
12370;DHT22;6249;52.128;9.986;2023-04-16T06:47:17;8.50;99.90
12370;DHT22;6249;52.128;9.986;2023-04-16T06:50:38;8.60;99.90
12370;DHT22;6249;52.128;9.986;2023-04-16T06:53:58;8.60;99.90
12370;DHT22;6249;52.128;9.986;2023-04-16T06:57:19;8.60;99.90
12370;DHT22;6249;52.128;9.986;2023-04-16T07:00:40;8.60;99.90
12370;DHT22;6249;52.128;9.986;2023-04-16T07:04:03;8.70;99.90
12370;DHT22;6249;52.128;9.986;2023-04-16T07:07:23;8.70;99.90
12370;DHT22;6249;52.128;9.986;2023-04-16T07:10:44;8.70;99.90
12370;DHT22;6249;52.128;9.986;2023-04-16T07:14:05;8.70;99.90
12370;DHT22;6249;52.128;9.986;2023-04-16T07:17:25;8.80;99.90
12370;DHT22;6249;52.128;9.986;2023-04-16T07:20:47;8.80;99.90
12370;DHT22;6249;52.128;9.986;2023-04-16T07:24:07;8.70;99.90
12370;DHT22;6249;52.128;9.986;2023-04-16T07:27:28;8.90;99.90
12370;DHT22;6249;52.128;9.986;2023-04-16T07:30:48;8.90;99.90
12370;DHT22;6249;52.128;9.986;2023-04-16T07:34:13;8.90;99.90
12370;DHT22;6249;52.128;9.986;2023-04-16T07:37:36;9.00;99.90
12370;DHT22;6249;52.128;9.986;2023-04-16T07:40:57;9.00;99.90
12370;DHT22;6249;52.128;9.986;2023-04-16T07:44:17;9.10;99.90
12370;DHT22;6249;52.128;9.986;2023-04-16T07:47:40;9.10;99.90
12370;DHT22;6249;52.128;9.986;2023-04-16T07:51:01;9.20;99.90
12370;DHT22;6249;52.128;9.986;2023-04-16T07:54:22;9.30;99.90
12370;DHT22;6249;52.128;9.986;2023-04-16T07:57:42;9.30;99.90
12370;DHT22;6249;52.128;9.986;2023-04-16T08:01:07;9.30;99.90
12370;DHT22;6249;52.128;9.986;2023-04-16T08:04:28;9.20;99.90
12370;DHT22;6249;52.128;9.986;2023-04-16T08:07:49;9.20;99.90
12370;DHT22;6249;52.128;9.986;2023-04-16T08:11:12;9.30;99.90
12370;DHT22;6249;52.128;9.986;2023-04-16T08:14:32;9.30;99.90
12370;DHT22;6249;52.128;9.986;2023-04-16T08:17:53;9.20;99.90
12370;DHT22;6249;52.128;9.986;2023-04-16T08:21:13;9.30;99.90
12370;DHT22;6249;52.128;9.986;2023-04-16T08:24:34;9.30;99.90
12370;DHT22;6249;52.128;9.986;2023-04-16T08:27:55;9.30;99.90
12370;DHT22;6249;52.128;9.986;2023-04-16T08:31:18;9.30;99.90
12370;DHT22;6249;52.128;9.986;2023-04-16T08:34:41;9.30;99.90
12370;DHT22;6249;52.128;9.986;2023-04-16T08:38:04;9.40;99.90
12370;DHT22;6249;52.128;9.986;2023-04-16T08:41:30;9.40;99.90
12370;DHT22;6249;52.128;9.986;2023-04-16T08:45:02;9.40;99.90
12370;DHT22;6249;52.128;9.986;2023-04-16T08:48:31;9.30;99.90
12370;DHT22;6249;52.128;9.986;2023-04-16T08:51:55;9.30;99.90
12370;DHT22;6249;52.128;9.986;2023-04-16T08:55:20;9.30;99.90
12370;DHT22;6249;52.128;9.986;2023-04-16T08:58:42;9.30;99.90
12370;DHT22;6249;52.128;9.986;2023-04-16T09:02:07;9.30;99.90
12370;DHT22;6249;52.128;9.986;2023-04-16T09:05:34;9.40;99.90
12370;DHT22;6249;52.128;9.986;2023-04-16T09:08:58;9.40;99.90
12370;DHT22;6249;52.128;9.986;2023-04-16T09:12:24;9.40;99.90
12370;DHT22;6249;52.128;9.986;2023-04-16T09:15:45;9.40;99.90
12370;DHT22;6249;52.128;9.986;2023-04-16T09:19:06;9.60;99.90
12370;DHT22;6249;52.128;9.986;2023-04-16T09:22:29;9.50;99.90
12370;DHT22;6249;52.128;9.986;2023-04-16T09:25:49;9.50;99.90
12370;DHT22;6249;52.128;9.986;2023-04-16T09:29:13;9.60;99.90
12370;DHT22;6249;52.128;9.986;2023-04-16T09:32:52;9.70;99.90
12370;DHT22;6249;52.128;9.986;2023-04-16T09:36:33;9.60;99.90
12370;DHT22;6249;52.128;9.986;2023-04-16T09:39:59;9.70;99.90
12370;DHT22;6249;52.128;9.986;2023-04-16T09:43:22;9.80;99.90
12370;DHT22;6249;52.128;9.986;2023-04-16T09:46:46;9.80;99.90
12370;DHT22;6249;52.128;9.986;2023-04-16T09:50:08;9.80;99.90
12370;DHT22;6249;52.128;9.986;2023-04-16T09:53:29;9.20;99.90
12370;DHT22;6249;52.128;9.986;2023-04-16T09:56:57;9.90;99.90
12370;DHT22;6249;52.128;9.986;2023-04-16T10:00:22;9.90;99.90
12370;DHT22;6249;52.128;9.986;2023-04-16T10:03:48;10.00;99.90
12370;DHT22;6249;52.128;9.986;2023-04-16T10:07:12;10.00;99.90
12370;DHT22;6249;52.128;9.986;2023-04-16T10:10:35;9.90;99.90
12370;DHT22;6249;52.128;9.986;2023-04-16T10:13:56;10.00;99.90
12370;DHT22;6249;52.128;9.986;2023-04-16T10:17:16;10.00;99.90
12370;DHT22;6249;52.128;9.986;2023-04-16T10:20:37;10.10;99.90
12370;DHT22;6249;52.128;9.986;2023-04-16T10:24:00;10.10;99.90
12370;DHT22;6249;52.128;9.986;2023-04-16T10:27:25;10.10;99.90
12370;DHT22;6249;52.128;9.986;2023-04-16T10:30:52;10.10;99.90
12370;DHT22;6249;52.128;9.986;2023-04-16T10:34:14;10.10;99.90
12370;DHT22;6249;52.128;9.986;2023-04-16T10:37:36;10.20;99.90
12370;DHT22;6249;52.128;9.986;2023-04-16T10:41:04;10.10;99.90
12370;DHT22;6249;52.128;9.986;2023-04-16T10:44:24;10.10;99.90
12370;DHT22;6249;52.128;9.986;2023-04-16T10:47:45;10.00;99.90
12370;DHT22;6249;52.128;9.986;2023-04-16T10:51:08;10.00;99.90
12370;DHT22;6249;52.128;9.986;2023-04-16T10:54:42;10.00;99.90
12370;DHT22;6249;52.128;9.986;2023-04-16T10:58:25;10.10;99.90
12370;DHT22;6249;52.128;9.986;2023-04-16T11:01:49;10.00;99.90
12370;DHT22;6249;52.128;9.986;2023-04-16T11:05:11;10.10;99.90
12370;DHT22;6249;52.128;9.986;2023-04-16T11:08:32;10.00;99.90
12370;DHT22;6249;52.128;9.986;2023-04-16T11:11:55;10.00;99.90
12370;DHT22;6249;52.128;9.986;2023-04-16T11:15:16;10.00;99.90
12370;DHT22;6249;52.128;9.986;2023-04-16T11:18:39;10.10;99.90
12370;DHT22;6249;52.128;9.986;2023-04-16T11:22:01;10.10;99.90
12370;DHT22;6249;52.128;9.986;2023-04-16T11:25:26;10.10;99.90
12370;DHT22;6249;52.128;9.986;2023-04-16T11:28:49;10.00;99.90
12370;DHT22;6249;52.128;9.986;2023-04-16T11:32:12;10.10;99.90
12370;DHT22;6249;52.128;9.986;2023-04-16T11:35:39;10.00;99.90
12370;DHT22;6249;52.128;9.986;2023-04-16T11:39:05;10.10;99.90
12370;DHT22;6249;52.128;9.986;2023-04-16T11:42:27;10.10;99.90
12370;DHT22;6249;52.128;9.986;2023-04-16T11:45:59;10.10;99.90
12370;DHT22;6249;52.128;9.986;2023-04-16T11:49:29;10.10;99.90
12370;DHT22;6249;52.128;9.986;2023-04-16T11:52:53;10.20;99.90
12370;DHT22;6249;52.128;9.986;2023-04-16T11:56:15;10.10;99.90
12370;DHT22;6249;52.128;9.986;2023-04-16T11:59:36;10.30;99.90
12370;DHT22;6249;52.128;9.986;2023-04-16T12:02:57;10.20;99.90
12370;DHT22;6249;52.128;9.986;2023-04-16T12:06:20;10.10;99.90
12370;DHT22;6249;52.128;9.986;2023-04-16T12:09:42;10.10;99.90
12370;DHT22;6249;52.128;9.986;2023-04-16T12:13:13;10.20;99.90
12370;DHT22;6249;52.128;9.986;2023-04-16T12:16:39;10.10;99.90
12370;DHT22;6249;52.128;9.986;2023-04-16T12:23:31;10.20;99.90
12370;DHT22;6249;52.128;9.986;2023-04-16T12:26:53;10.20;99.90
12370;DHT22;6249;52.128;9.986;2023-04-16T12:30:25;10.20;99.90
12370;DHT22;6249;52.128;9.986;2023-04-16T12:34:01;10.30;99.90
12370;DHT22;6249;52.128;9.986;2023-04-16T12:37:21;10.30;99.90
12370;DHT22;6249;52.128;9.986;2023-04-16T12:40:42;10.30;99.90
12370;DHT22;6249;52.128;9.986;2023-04-16T12:44:06;10.30;99.90
12370;DHT22;6249;52.128;9.986;2023-04-16T12:47:28;10.30;99.90
12370;DHT22;6249;52.128;9.986;2023-04-16T12:50:52;10.30;99.90
12370;DHT22;6249;52.128;9.986;2023-04-16T12:54:13;10.30;99.90
12370;DHT22;6249;52.128;9.986;2023-04-16T12:57:34;10.40;99.90
12370;DHT22;6249;52.128;9.986;2023-04-16T13:00:57;10.20;99.90
12370;DHT22;6249;52.128;9.986;2023-04-16T13:04:17;10.30;99.90
12370;DHT22;6249;52.128;9.986;2023-04-16T13:07:41;10.20;99.90
12370;DHT22;6249;52.128;9.986;2023-04-16T13:11:02;10.20;99.90
12370;DHT22;6249;52.128;9.986;2023-04-16T13:14:25;10.20;99.90
12370;DHT22;6249;52.128;9.986;2023-04-16T13:17:48;10.30;99.90
12370;DHT22;6249;52.128;9.986;2023-04-16T13:21:11;10.30;99.90
12370;DHT22;6249;52.128;9.986;2023-04-16T13:24:34;10.20;99.90
12370;DHT22;6249;52.128;9.986;2023-04-16T13:27:55;10.20;99.90
12370;DHT22;6249;52.128;9.986;2023-04-16T13:31:15;10.10;99.90
12370;DHT22;6249;52.128;9.986;2023-04-16T13:34:39;10.40;99.90
12370;DHT22;6249;52.128;9.986;2023-04-16T13:38:00;10.40;99.90
12370;DHT22;6249;52.128;9.986;2023-04-16T13:41:20;10.40;99.90
12370;DHT22;6249;52.128;9.986;2023-04-16T13:44:41;10.40;99.90
12370;DHT22;6249;52.128;9.986;2023-04-16T13:48:02;10.40;99.90
12370;DHT22;6249;52.128;9.986;2023-04-16T13:51:22;10.50;99.90
12370;DHT22;6249;52.128;9.986;2023-04-16T13:54:46;10.40;99.90
12370;DHT22;6249;52.128;9.986;2023-04-16T13:58:06;10.40;99.90
12370;DHT22;6249;52.128;9.986;2023-04-16T14:01:27;10.50;99.90
12370;DHT22;6249;52.128;9.986;2023-04-16T14:04:49;10.50;99.90
12370;DHT22;6249;52.128;9.986;2023-04-16T14:08:10;10.60;99.90
12370;DHT22;6249;52.128;9.986;2023-04-16T14:11:33;10.80;99.90
12370;DHT22;6249;52.128;9.986;2023-04-16T14:14:54;10.80;99.90
12370;DHT22;6249;52.128;9.986;2023-04-16T14:18:17;10.80;99.90
12370;DHT22;6249;52.128;9.986;2023-04-16T14:21:37;10.80;99.90
12370;DHT22;6249;52.128;9.986;2023-04-16T14:24:58;10.90;99.90
12370;DHT22;6249;52.128;9.986;2023-04-16T14:28:22;11.10;99.90
12370;DHT22;6249;52.128;9.986;2023-04-16T14:31:43;11.20;99.90
12370;DHT22;6249;52.128;9.986;2023-04-16T14:35:04;11.40;99.90
12370;DHT22;6249;52.128;9.986;2023-04-16T14:38:27;11.50;99.90
12370;DHT22;6249;52.128;9.986;2023-04-16T14:41:50;11.70;99.90
12370;DHT22;6249;52.128;9.986;2023-04-16T14:45:11;11.70;99.90
12370;DHT22;6249;52.128;9.986;2023-04-16T14:48:31;11.80;99.90
12370;DHT22;6249;52.128;9.986;2023-04-16T14:51:52;11.80;99.90
12370;DHT22;6249;52.128;9.986;2023-04-16T14:55:13;11.90;99.90
12370;DHT22;6249;52.128;9.986;2023-04-16T14:58:36;11.80;99.90
12370;DHT22;6249;52.128;9.986;2023-04-16T15:01:57;12.20;99.90
12370;DHT22;6249;52.128;9.986;2023-04-16T15:05:21;11.90;99.90
12370;DHT22;6249;52.128;9.986;2023-04-16T15:08:41;11.90;99.90
12370;DHT22;6249;52.128;9.986;2023-04-16T15:12:02;11.90;99.90
12370;DHT22;6249;52.128;9.986;2023-04-16T15:15:23;11.80;99.90
12370;DHT22;6249;52.128;9.986;2023-04-16T15:18:47;11.90;99.90
12370;DHT22;6249;52.128;9.986;2023-04-16T15:22:08;11.80;99.90
12370;DHT22;6249;52.128;9.986;2023-04-16T15:25:30;11.90;99.90
12370;DHT22;6249;52.128;9.986;2023-04-16T15:28:53;11.90;99.90
12370;DHT22;6249;52.128;9.986;2023-04-16T15:32:16;11.80;99.90
12370;DHT22;6249;52.128;9.986;2023-04-16T15:35:39;11.80;99.90
12370;DHT22;6249;52.128;9.986;2023-04-16T15:39:00;11.80;99.90
12370;DHT22;6249;52.128;9.986;2023-04-16T15:42:24;11.80;99.90
12370;DHT22;6249;52.128;9.986;2023-04-16T15:45:47;11.80;99.90
12370;DHT22;6249;52.128;9.986;2023-04-16T15:49:08;11.80;99.90
12370;DHT22;6249;52.128;9.986;2023-04-16T15:52:28;11.80;99.90
12370;DHT22;6249;52.128;9.986;2023-04-16T15:55:52;12.00;99.90
12370;DHT22;6249;52.128;9.986;2023-04-16T15:59:13;12.00;99.90
12370;DHT22;6249;52.128;9.986;2023-04-16T16:02:36;12.00;99.90
12370;DHT22;6249;52.128;9.986;2023-04-16T16:05:57;12.00;99.90
12370;DHT22;6249;52.128;9.986;2023-04-16T16:09:20;12.20;99.90
12370;DHT22;6249;52.128;9.986;2023-04-16T16:12:47;12.30;99.90
12370;DHT22;6249;52.128;9.986;2023-04-16T16:16:08;12.30;99.90
12370;DHT22;6249;52.128;9.986;2023-04-16T16:19:28;12.30;99.90
12370;DHT22;6249;52.128;9.986;2023-04-16T16:22:51;12.30;99.90
12370;DHT22;6249;52.128;9.986;2023-04-16T16:26:16;12.20;99.90
12370;DHT22;6249;52.128;9.986;2023-04-16T16:29:36;12.20;99.90
12370;DHT22;6249;52.128;9.986;2023-04-16T16:32:57;12.20;99.90
12370;DHT22;6249;52.128;9.986;2023-04-16T16:36:18;12.20;99.90
12370;DHT22;6249;52.128;9.986;2023-04-16T16:39:38;12.20;99.90
12370;DHT22;6249;52.128;9.986;2023-04-16T16:42:59;12.20;99.90
12370;DHT22;6249;52.128;9.986;2023-04-16T16:46:19;12.20;99.90
12370;DHT22;6249;52.128;9.986;2023-04-16T16:49:43;12.20;99.90
12370;DHT22;6249;52.128;9.986;2023-04-16T16:53:06;12.10;99.90
12370;DHT22;6249;52.128;9.986;2023-04-16T16:56:30;12.00;99.90
12370;DHT22;6249;52.128;9.986;2023-04-16T16:59:53;12.00;99.90
12370;DHT22;6249;52.128;9.986;2023-04-16T17:03:16;11.90;99.90
12370;DHT22;6249;52.128;9.986;2023-04-16T17:06:36;11.90;99.90
12370;DHT22;6249;52.128;9.986;2023-04-16T17:09:58;11.80;99.90
12370;DHT22;6249;52.128;9.986;2023-04-16T17:13:19;11.70;99.90
12370;DHT22;6249;52.128;9.986;2023-04-16T17:16:44;11.70;99.90
12370;DHT22;6249;52.128;9.986;2023-04-16T17:20:12;11.60;99.90
12370;DHT22;6249;52.128;9.986;2023-04-16T17:23:36;11.70;99.90
12370;DHT22;6249;52.128;9.986;2023-04-16T17:26:58;11.50;99.90
12370;DHT22;6249;52.128;9.986;2023-04-16T17:30:21;11.30;99.90
12370;DHT22;6249;52.128;9.986;2023-04-16T17:33:46;11.40;99.90
12370;DHT22;6249;52.128;9.986;2023-04-16T17:37:09;11.30;99.90
12370;DHT22;6249;52.128;9.986;2023-04-16T17:40:30;11.30;99.90
12370;DHT22;6249;52.128;9.986;2023-04-16T17:43:55;11.30;99.90
12370;DHT22;6249;52.128;9.986;2023-04-16T17:47:16;11.40;99.90
12370;DHT22;6249;52.128;9.986;2023-04-16T17:50:39;11.30;99.90
12370;DHT22;6249;52.128;9.986;2023-04-16T17:53:59;11.40;99.90
12370;DHT22;6249;52.128;9.986;2023-04-16T17:57:25;11.30;99.90
12370;DHT22;6249;52.128;9.986;2023-04-16T18:00:46;11.30;99.90
12370;DHT22;6249;52.128;9.986;2023-04-16T18:04:07;11.20;99.90
12370;DHT22;6249;52.128;9.986;2023-04-16T18:07:28;11.20;99.90
12370;DHT22;6249;52.128;9.986;2023-04-16T18:10:51;11.20;99.90
12370;DHT22;6249;52.128;9.986;2023-04-16T18:14:16;11.20;99.90
12370;DHT22;6249;52.128;9.986;2023-04-16T18:17:41;11.20;99.90
12370;DHT22;6249;52.128;9.986;2023-04-16T18:21:02;11.10;99.90
12370;DHT22;6249;52.128;9.986;2023-04-16T18:24:25;11.10;99.90
12370;DHT22;6249;52.128;9.986;2023-04-16T18:27:48;11.10;99.90
12370;DHT22;6249;52.128;9.986;2023-04-16T18:31:09;11.10;99.90
12370;DHT22;6249;52.128;9.986;2023-04-16T18:34:32;11.20;99.90
12370;DHT22;6249;52.128;9.986;2023-04-16T18:37:53;11.20;99.90
12370;DHT22;6249;52.128;9.986;2023-04-16T18:41:19;11.10;99.90
12370;DHT22;6249;52.128;9.986;2023-04-16T18:44:40;11.00;99.90
12370;DHT22;6249;52.128;9.986;2023-04-16T18:48:01;11.00;99.90
12370;DHT22;6249;52.128;9.986;2023-04-16T18:51:23;10.90;99.90
12370;DHT22;6249;52.128;9.986;2023-04-16T18:54:44;10.90;99.90
12370;DHT22;6249;52.128;9.986;2023-04-16T18:58:07;10.90;99.90
12370;DHT22;6249;52.128;9.986;2023-04-16T19:01:30;10.90;99.90
12370;DHT22;6249;52.128;9.986;2023-04-16T19:04:53;10.80;99.90
12370;DHT22;6249;52.128;9.986;2023-04-16T19:08:13;10.90;99.90
12370;DHT22;6249;52.128;9.986;2023-04-16T19:11:41;10.90;99.90
12370;DHT22;6249;52.128;9.986;2023-04-16T19:15:04;10.70;99.90
12370;DHT22;6249;52.128;9.986;2023-04-16T19:18:25;10.70;99.90
12370;DHT22;6249;52.128;9.986;2023-04-16T19:21:45;10.70;99.90
12370;DHT22;6249;52.128;9.986;2023-04-16T19:25:06;10.70;99.90
12370;DHT22;6249;52.128;9.986;2023-04-16T19:28:27;10.70;99.90
12370;DHT22;6249;52.128;9.986;2023-04-16T19:31:50;10.80;99.90
12370;DHT22;6249;52.128;9.986;2023-04-16T19:35:11;10.60;99.90
12370;DHT22;6249;52.128;9.986;2023-04-16T19:38:32;10.60;99.90
12370;DHT22;6249;52.128;9.986;2023-04-16T19:41:52;10.50;99.90
12370;DHT22;6249;52.128;9.986;2023-04-16T19:45:13;10.40;99.90
12370;DHT22;6249;52.128;9.986;2023-04-16T19:48:33;10.40;99.90
12370;DHT22;6249;52.128;9.986;2023-04-16T19:51:56;10.40;99.90
12370;DHT22;6249;52.128;9.986;2023-04-16T19:55:17;10.40;99.90
12370;DHT22;6249;52.128;9.986;2023-04-16T19:58:38;10.30;99.90
12370;DHT22;6249;52.128;9.986;2023-04-16T20:02:01;10.30;99.90
12370;DHT22;6249;52.128;9.986;2023-04-16T20:05:24;10.30;99.90
12370;DHT22;6249;52.128;9.986;2023-04-16T20:08:45;10.30;99.90
12370;DHT22;6249;52.128;9.986;2023-04-16T20:12:06;10.20;99.90
12370;DHT22;6249;52.128;9.986;2023-04-16T20:15:31;10.10;99.90
12370;DHT22;6249;52.128;9.986;2023-04-16T20:18:51;10.10;99.90
12370;DHT22;6249;52.128;9.986;2023-04-16T20:22:18;10.10;99.90
12370;DHT22;6249;52.128;9.986;2023-04-16T20:25:42;10.00;99.90
12370;DHT22;6249;52.128;9.986;2023-04-16T20:29:03;9.90;99.90
12370;DHT22;6249;52.128;9.986;2023-04-16T20:32:28;10.00;99.90
12370;DHT22;6249;52.128;9.986;2023-04-16T20:35:49;9.90;99.90
12370;DHT22;6249;52.128;9.986;2023-04-16T20:39:12;9.90;99.90
12370;DHT22;6249;52.128;9.986;2023-04-16T20:42:33;9.90;99.90
12370;DHT22;6249;52.128;9.986;2023-04-16T20:45:54;9.90;99.90
12370;DHT22;6249;52.128;9.986;2023-04-16T20:49:14;9.90;99.90
12370;DHT22;6249;52.128;9.986;2023-04-16T20:52:37;9.90;99.90
12370;DHT22;6249;52.128;9.986;2023-04-16T20:55:58;9.90;99.90
12370;DHT22;6249;52.128;9.986;2023-04-16T20:59:22;9.90;99.90
12370;DHT22;6249;52.128;9.986;2023-04-16T21:02:43;9.90;99.90
12370;DHT22;6249;52.128;9.986;2023-04-16T21:06:03;10.00;99.90
12370;DHT22;6249;52.128;9.986;2023-04-16T21:09:26;10.00;99.90
12370;DHT22;6249;52.128;9.986;2023-04-16T21:12:47;10.00;99.90
12370;DHT22;6249;52.128;9.986;2023-04-16T21:16:10;10.00;99.90
12370;DHT22;6249;52.128;9.986;2023-04-16T21:19:31;10.00;99.90
12370;DHT22;6249;52.128;9.986;2023-04-16T21:22:52;9.90;99.90
12370;DHT22;6249;52.128;9.986;2023-04-16T21:26:16;9.90;99.90
12370;DHT22;6249;52.128;9.986;2023-04-16T21:29:37;9.90;99.90
12370;DHT22;6249;52.128;9.986;2023-04-16T21:33:00;9.90;99.90
12370;DHT22;6249;52.128;9.986;2023-04-16T21:36:20;9.90;99.90
12370;DHT22;6249;52.128;9.986;2023-04-16T21:39:45;9.90;99.90
12370;DHT22;6249;52.128;9.986;2023-04-16T21:43:10;9.90;99.90
12370;DHT22;6249;52.128;9.986;2023-04-16T21:46:31;9.90;99.90
12370;DHT22;6249;52.128;9.986;2023-04-16T21:49:54;9.90;99.90
12370;DHT22;6249;52.128;9.986;2023-04-16T21:53:14;10.00;99.90
12370;DHT22;6249;52.128;9.986;2023-04-16T21:56:35;9.90;99.90